createdAt,value
2022-08-26T00:02:20.963Z,32.85
2022-08-26T00:06:24.701Z,27.27
2022-08-26T00:10:27.799Z,30.20
2022-08-26T00:14:31.606Z,23.58
2022-08-26T00:18:38.783Z,33.85
2022-08-26T00:22:43.883Z,30.52
2022-08-26T00:26:47.758Z,22.77
2022-08-26T00:30:51.609Z,28.55
2022-08-26T00:34:56.528Z,22.25
2022-08-26T00:38:59.998Z,28.60
2022-08-26T00:43:09.313Z,27.17
2022-08-26T00:47:22.497Z,26.20
2022-08-26T00:51:29.948Z,26.45
2022-08-26T00:55:38.199Z,28.00
2022-08-26T00:59:41.771Z,25.33
2022-08-26T01:03:47.043Z,26.30
2022-08-26T01:07:51.565Z,21.75
2022-08-26T01:11:57.457Z,22.98
2022-08-26T01:16:03.792Z,23.70
2022-08-26T01:20:13.677Z,24.17
2022-08-26T01:24:19.420Z,20.65
2022-08-26T01:28:28.222Z,22.25
2022-08-26T01:32:34.012Z,22.42
2022-08-26T01:36:38.361Z,19.63
2022-08-26T01:40:44.097Z,20.90
2022-08-26T01:50:49.239Z,17.70
2022-08-26T01:54:53.072Z,17.38
2022-08-26T01:59:00.542Z,18.05
2022-08-26T02:03:17.636Z,17.52
2022-08-26T02:07:22.577Z,17.48
2022-08-26T02:11:29.985Z,15.93
2022-08-26T02:15:34.578Z,12.05
2022-08-26T02:19:41.976Z,15.88
2022-08-26T02:23:45.594Z,14.43
2022-08-26T02:27:49.033Z,14.32
2022-08-26T02:31:55.795Z,14.45
2022-08-26T02:35:59.091Z,14.02
2022-08-26T02:40:03.118Z,13.80
2022-08-26T02:44:07.227Z,12.50
2022-08-26T02:48:13.954Z,14.13
2022-08-26T02:52:16.980Z,13.77
2022-08-26T02:56:19.961Z,12.70
2022-08-26T03:00:23.795Z,12.82
2022-08-26T03:04:28.319Z,11.80
2022-08-26T03:08:31.308Z,11.52
2022-08-26T03:12:34.335Z,11.65
2022-08-26T03:16:38.265Z,11.23
2022-08-26T03:20:42.507Z,11.07
2022-08-26T03:24:47.023Z,10.05
2022-08-26T03:29:04.037Z,8.82
2022-08-26T03:33:08.592Z,9.48
2022-08-26T03:37:13.762Z,7.93
2022-08-26T03:41:18.088Z,8.25
2022-08-26T03:45:21.913Z,8.80
2022-08-26T03:49:25.086Z,8.43
2022-08-26T03:53:33.316Z,8.30
2022-08-26T03:57:39.392Z,7.30
2022-08-26T04:01:42.496Z,7.97
2022-08-26T04:05:45.735Z,6.78
2022-08-26T04:09:50.343Z,6.65
2022-08-26T04:13:53.518Z,6.43
2022-08-26T04:17:57.516Z,6.47
2022-08-26T04:22:00.992Z,5.78
2022-08-26T04:26:05.875Z,6.32
2022-08-26T04:30:10.553Z,6.22
2022-08-26T04:34:14.222Z,5.22
2022-08-26T04:38:20.013Z,4.78
2022-08-26T04:42:26.097Z,11.05
2022-08-26T04:46:29.624Z,4.88
2022-08-26T04:50:32.998Z,5.32
2022-08-26T04:54:36.162Z,5.80
2022-08-26T04:58:41.324Z,5.13
2022-08-26T05:02:44.688Z,5.15
2022-08-26T05:06:48.293Z,5.45
2022-08-26T05:10:54.720Z,4.55
2022-08-26T05:15:00.417Z,4.68
2022-08-26T05:19:03.646Z,8.52
2022-08-26T05:23:06.887Z,5.40
2022-08-26T05:27:12.494Z,4.72
2022-08-26T05:31:19.015Z,4.90
2022-08-26T05:35:22.988Z,4.65
2022-08-26T05:39:26.163Z,4.20
2022-08-26T05:43:29.229Z,4.13
2022-08-26T05:47:34.595Z,3.85
2022-08-26T05:51:37.901Z,4.07
2022-08-26T05:55:44.863Z,3.90
2022-08-26T05:59:48.420Z,3.58
2022-08-26T06:03:57.066Z,4.93
2022-08-26T06:08:19.175Z,4.05
2022-08-26T06:12:22.524Z,3.17
2022-08-26T06:16:25.942Z,3.47
2022-08-26T06:20:32.085Z,2.80
2022-08-26T06:24:52.787Z,3.08
2022-08-26T06:28:56.292Z,2.67
2022-08-26T06:32:59.350Z,2.75
2022-08-26T06:37:06.373Z,2.22
2022-08-26T06:41:11.555Z,3.22
2022-08-26T06:45:14.615Z,2.30
2022-08-26T06:49:17.764Z,2.42
2022-08-26T06:53:22.124Z,2.80
2022-08-26T06:57:25.201Z,2.70
2022-08-26T07:01:30.607Z,2.55
2022-08-26T07:05:35.832Z,2.30
2022-08-26T07:09:40.133Z,2.33
2022-08-26T07:13:43.840Z,1.92
2022-08-26T07:17:47.006Z,2.42
2022-08-26T07:21:50.074Z,2.58
2022-08-26T07:25:54.484Z,2.33
2022-08-26T07:29:58.758Z,2.28
2022-08-26T07:34:02.016Z,2.42
2022-08-26T07:38:06.887Z,2.38
2022-08-26T07:42:13.107Z,2.50
2022-08-26T07:46:20.722Z,2.42
2022-08-26T07:50:49.988Z,2.08
2022-08-26T07:54:53.476Z,2.90
2022-08-26T07:58:57.918Z,2.65
2022-08-26T08:03:01.270Z,2.22
2022-08-26T08:07:04.421Z,2.55
2022-08-26T08:11:11.488Z,11.05
2022-08-26T08:15:17.133Z,2.35
2022-08-26T08:19:20.185Z,2.60
2022-08-26T08:23:25.154Z,2.53
2022-08-26T08:27:28.881Z,2.72
2022-08-26T08:35:57.555Z,2.05
2022-08-26T08:40:00.796Z,2.47
2022-08-26T08:44:05.415Z,2.22
2022-08-26T08:48:16.994Z,2.10
2022-08-26T08:52:29.845Z,2.15
2022-08-26T08:56:36.320Z,1.92
2022-08-26T09:00:46.471Z,2.40
2022-08-26T09:05:18.479Z,2.58
2022-08-26T09:09:25.087Z,1.88
2022-08-26T09:13:29.227Z,2.22
2022-08-26T09:17:43.007Z,2.42
2022-08-26T09:21:56.853Z,1.67
2022-08-26T09:26:02.130Z,2.28
2022-08-26T09:30:11.446Z,2.63
2022-08-26T09:34:17.979Z,2.65
2022-08-26T09:38:28.147Z,2.13
2022-08-26T09:42:31.284Z,2.25
2022-08-26T09:46:34.595Z,2.05
2022-08-26T09:50:39.570Z,2.63
2022-08-26T09:54:46.263Z,2.25
2022-08-26T09:58:49.714Z,1.52
2022-08-26T10:02:56.047Z,2.15
2022-08-26T10:07:04.907Z,2.35
2022-08-26T10:11:19.076Z,2.88
2022-08-26T10:15:26.472Z,2.22
2022-08-26T10:19:41.796Z,2.20
2022-08-26T10:24:03.243Z,2.20
2022-08-26T10:28:18.878Z,1.88
2022-08-26T10:32:27.773Z,2.35
2022-08-26T10:37:14.316Z,1.90
2022-08-26T10:41:24.695Z,2.05
2022-08-26T10:45:31.909Z,1.77
2022-08-26T10:49:35.025Z,1.52
2022-08-26T10:53:46.075Z,1.70
2022-08-26T10:58:04.723Z,1.90
2022-08-26T11:02:14.914Z,1.73
2022-08-26T11:06:23.952Z,2.30
2022-08-26T11:11:03.421Z,2.30
2022-08-26T11:15:08.340Z,2.00
2022-08-26T11:20:00.092Z,1.95
2022-08-26T11:24:07.694Z,1.92
2022-08-26T11:28:11.235Z,1.70
2022-08-26T11:32:26.386Z,1.45
2022-08-26T11:37:02.514Z,2.25
2022-08-26T11:41:11.599Z,1.60
2022-08-26T11:45:22.848Z,1.90
2022-08-26T11:49:28.326Z,1.70
2022-08-26T11:53:33.934Z,1.70
2022-08-26T11:57:45.042Z,2.30
2022-08-26T12:01:51.962Z,1.75
2022-08-26T12:05:55.586Z,1.77
2022-08-26T12:10:02.123Z,1.75
2022-08-26T12:14:09.865Z,1.48
2022-08-26T12:18:28.851Z,1.48
2022-08-26T12:22:36.067Z,1.58
2022-08-26T12:26:39.643Z,1.90
2022-08-26T12:30:59.693Z,1.63
2022-08-26T12:39:24.777Z,1.73
2022-08-26T12:43:40.053Z,1.92
2022-08-26T12:47:46.342Z,1.85
2022-08-26T12:51:51.325Z,1.65
2022-08-26T14:12:33.810Z,2.05
2022-08-26T14:16:58.982Z,2.33
2022-08-26T14:21:03.271Z,1.65
2022-08-26T14:25:07.032Z,2.10
2022-08-26T14:29:14.701Z,1.73
2022-08-26T14:33:23.311Z,1.67
2022-08-26T14:37:26.501Z,1.42
2022-08-26T14:41:31.358Z,1.73
2022-08-26T14:49:41.759Z,1.80
2022-08-26T14:54:02.299Z,1.75
2022-08-26T14:58:05.569Z,2.30
2022-08-26T15:02:13.639Z,2.50
2022-08-26T15:06:25.478Z,1.00
2022-08-26T15:10:28.471Z,2.03
2022-08-26T15:14:33.058Z,1.88
2022-08-26T15:18:37.755Z,2.00
2022-08-26T15:22:42.456Z,2.10
2022-08-26T15:26:46.803Z,1.70
2022-08-26T15:30:50.149Z,1.77
2022-08-26T15:34:54.672Z,1.58
2022-08-26T15:39:01.418Z,1.80
2022-08-26T15:43:18.454Z,2.03
2022-08-26T15:47:28.188Z,1.55
2022-08-26T15:51:35.500Z,1.50
2022-08-26T15:55:49.448Z,1.60
2022-08-26T15:59:52.890Z,1.50
2022-08-26T16:03:56.104Z,1.52
2022-08-26T16:08:02.041Z,1.70
2022-08-26T16:12:05.749Z,1.60
2022-08-26T16:16:12.521Z,1.75
2022-08-26T16:20:17.108Z,1.60
2022-08-26T16:24:24.797Z,1.67
2022-08-26T16:28:30.323Z,1.58
2022-08-26T16:32:33.424Z,1.40
2022-08-26T16:36:37.941Z,1.80
2022-08-26T16:40:42.391Z,1.67
2022-08-26T16:44:45.646Z,1.90
2022-08-26T16:48:48.916Z,2.17
2022-08-26T16:52:55.645Z,2.20
2022-08-26T16:57:00.257Z,2.00
2022-08-26T18:23:56.360Z,1.30
2022-08-26T18:27:59.411Z,1.20
2022-08-26T18:32:02.598Z,0.70
2022-08-26T18:36:06.232Z,0.88
2022-08-26T18:40:12.982Z,0.50
2022-08-26T18:44:18.552Z,0.77
2022-08-26T18:48:23.068Z,0.63
2022-08-26T18:52:26.147Z,1.10
2022-08-26T18:56:31.630Z,0.75
2022-08-26T19:00:34.854Z,1.00
2022-08-26T19:04:38.665Z,0.70
2022-08-26T19:08:44.618Z,0.90
2022-08-26T19:12:51.911Z,1.00
2022-08-26T19:16:55.583Z,1.00
2022-08-26T19:20:58.691Z,0.80
2022-08-26T19:25:01.896Z,0.90
2022-08-26T19:29:07.116Z,1.20
2022-08-26T19:33:11.583Z,1.10
2022-08-26T19:37:15.029Z,0.70
2022-08-26T19:41:20.458Z,0.82
2022-08-26T19:45:25.582Z,0.55
2022-08-26T19:49:28.783Z,0.77
2022-08-26T19:53:31.870Z,0.80
2022-08-26T19:57:35.487Z,0.80
2022-08-26T20:01:40.215Z,0.77
2022-08-26T20:05:43.755Z,2.75
2022-08-26T20:09:48.023Z,0.73
2022-08-26T20:13:51.347Z,0.65
2022-08-26T20:17:55.927Z,0.60
2022-08-26T20:21:59.117Z,0.70
2022-08-26T20:26:02.156Z,0.90
2022-08-26T20:30:09.295Z,0.50
2022-08-26T20:34:15.431Z,1.00
2022-08-26T20:38:21.615Z,0.68
2022-08-26T20:42:26.207Z,1.10
2022-08-26T20:46:29.641Z,1.27
2022-08-26T20:50:34.244Z,0.85
2022-08-26T20:54:37.308Z,0.55
2022-08-26T20:58:41.092Z,0.95
2022-08-26T21:02:44.186Z,1.00
2022-08-26T21:06:52.887Z,0.70
2022-08-26T21:10:56.248Z,0.63
2022-08-26T21:14:59.518Z,0.70
2022-08-26T21:19:02.620Z,0.70
2022-08-26T21:23:07.262Z,2.95
2022-08-26T21:27:10.357Z,0.57
2022-08-26T21:31:16.148Z,0.70
2022-08-26T21:35:19.234Z,0.80
2022-08-26T21:39:23.712Z,1.17
2022-08-26T21:43:35.595Z,0.77
2022-08-26T21:47:39.655Z,0.90
2022-08-26T21:51:46.178Z,0.70
2022-08-26T21:55:50.645Z,1.20
2022-08-26T21:59:54.017Z,1.05
2022-08-26T22:03:57.412Z,0.80
2022-08-26T22:08:00.451Z,0.90
2022-08-26T22:12:05.838Z,0.82
2022-08-26T22:16:10.009Z,0.88
2022-08-26T22:20:16.365Z,1.05
2022-08-26T22:24:21.844Z,0.93
2022-08-26T22:28:26.296Z,1.00
2022-08-26T22:32:29.325Z,1.15
2022-08-26T22:36:32.427Z,1.35
2022-08-26T22:40:36.274Z,0.73
2022-08-26T22:44:41.274Z,1.00
2022-08-26T22:48:44.842Z,0.80
2022-08-26T22:52:47.935Z,0.93
2022-08-26T22:56:51.029Z,1.40
2022-08-26T23:00:55.710Z,0.90
2022-08-26T23:04:58.818Z,1.20
2022-08-26T23:09:01.921Z,1.00
2022-08-26T23:13:07.775Z,0.80
2022-08-26T23:17:14.372Z,0.80
2022-08-26T23:21:17.467Z,1.17
2022-08-26T23:25:20.754Z,0.80
2022-08-26T23:29:23.999Z,0.80
2022-08-26T23:33:48.747Z,1.00
2022-08-26T23:37:53.106Z,1.00
2022-08-26T23:41:56.953Z,0.77
2022-08-26T23:46:00.201Z,1.10
2022-08-26T23:50:05.073Z,1.10
2022-08-26T23:54:07.329Z,0.88
2022-08-26T23:58:11.419Z,1.10
